Time;durP1;ratioP1;P1;durP2;ratioP2;P2;SDS_P1;SDS_P2;PMS_P1;PMS_P2;Temp;Humidity;BMP_temperature;BMP_pressure;BME280_temperature;BME280_humidity;BME280_pressure;Samples;Min_cycle;Max_cycle;Signal;HPM_P1;HPM_P2
2023/04/21 00:01:02;;;;;;;4.60;4.20;;;;;;;;;;4823407;29;20462;-84
2023/04/21 00:03:32;;;;;;;7.88;4.25;;;;;;;;;;4820714;29;20046;-84
2023/04/21 00:06:00;;;;;;;4.50;4.20;;;;;;;;;;4819811;29;20051;-84
2023/04/21 00:08:27;;;;;;;4.85;4.35;;;;;;;;;;4819607;29;20103;-83
2023/04/21 00:10:55;;;;;;;4.40;4.00;;;;;;;;;;4817733;29;20051;-84
2023/04/21 00:13:22;;;;;;;5.22;4.15;;;;;;;;;;4816416;29;20137;-84
2023/04/21 00:15:50;;;;;;;4.20;3.80;;;;;;;;;;4818732;29;20520;-84
2023/04/21 00:18:17;;;;;;;5.63;3.95;;;;;;;;;;4820868;29;20046;-84
2023/04/21 00:20:45;;;;;;;5.75;4.30;;;;;;;;;;4819457;29;20125;-84
2023/04/21 00:23:12;;;;;;;4.40;3.90;;;;;;;;;;4817135;29;20050;-85
2023/04/21 00:25:40;;;;;;;4.03;3.72;;;;;;;;;;4818172;29;20090;-84
2023/04/21 00:28:07;;;;;;;4.18;3.90;;;;;;;;;;4822314;29;20069;-84
2023/04/21 00:30:37;;;;;;;4.35;3.70;;;;;;;;;;4826838;29;20058;-84
2023/04/21 00:33:04;;;;;;;3.75;3.45;;;;;;;;;;4828275;29;20117;-85
2023/04/21 00:35:31;;;;;;;4.00;3.70;;;;;;;;;;4825448;29;20062;-84
2023/04/21 00:38:00;;;;;;;4.72;3.42;;;;;;;;;;4825627;29;20081;-84
2023/04/21 00:40:27;;;;;;;3.92;3.63;;;;;;;;;;4827291;29;20145;-84
2023/04/21 00:42:55;;;;;;;5.45;3.60;;;;;;;;;;4813917;29;20051;-84
2023/04/21 00:45:22;;;;;;;4.40;3.63;;;;;;;;;;4827670;29;20072;-84
2023/04/21 00:47:51;;;;;;;3.97;3.67;;;;;;;;;;4814770;29;20153;-84
2023/04/21 00:50:18;;;;;;;3.83;3.33;;;;;;;;;;4823216;29;20041;-84
2023/04/21 00:52:46;;;;;;;5.32;3.45;;;;;;;;;;4824526;29;20054;-83
2023/04/21 00:55:13;;;;;;;4.43;3.92;;;;;;;;;;4822322;29;20178;-84
2023/04/21 00:57:43;;;;;;;8.63;4.15;;;;;;;;;;4819181;29;20047;-83
2023/04/21 01:00:10;;;;;;;4.10;3.60;;;;;;;;;;4810790;29;20050;-84
2023/04/21 01:02:39;;;;;;;3.47;3.17;;;;;;;;;;4820079;29;20083;-84
2023/04/21 01:05:07;;;;;;;3.60;3.30;;;;;;;;;;4825607;29;20501;-84
2023/04/21 01:07:37;;;;;;;4.22;3.33;;;;;;;;;;4829977;29;20130;-85
2023/04/21 01:10:05;;;;;;;3.45;3.15;;;;;;;;;;4830566;29;20115;-83
2023/04/21 01:12:34;;;;;;;5.65;3.05;;;;;;;;;;4817331;29;20046;-83
2023/04/21 01:15:02;;;;;;;2.92;2.72;;;;;;;;;;4820622;29;20072;-84
2023/04/21 01:17:30;;;;;;;3.38;3.15;;;;;;;;;;4826102;29;20126;-84
2023/04/21 01:19:58;;;;;;;7.47;3.95;;;;;;;;;;4830137;29;20070;-83
2023/04/21 01:22:26;;;;;;;4.82;3.85;;;;;;;;;;4830143;29;20050;-85
2023/04/21 01:24:53;;;;;;;5.75;4.22;;;;;;;;;;4820364;29;20431;-83
2023/04/21 01:27:21;;;;;;;4.68;3.80;;;;;;;;;;4825274;29;20051;-84
2023/04/21 01:29:50;;;;;;;4.03;3.63;;;;;;;;;;4821640;29;20549;-84
2023/04/21 01:32:19;;;;;;;5.63;5.13;;;;;;;;;;4825769;29;20107;-84
2023/04/21 01:34:46;;;;;;;7.57;5.80;;;;;;;;;;4826922;29;20118;-83
2023/04/21 01:37:15;;;;;;;6.43;5.72;;;;;;;;;;4821821;29;20046;-83
2023/04/21 01:39:44;;;;;;;6.60;5.55;;;;;;;;;;4824478;29;20054;-85
2023/04/21 01:42:11;;;;;;;6.75;5.40;;;;;;;;;;4822978;29;20054;-84
2023/04/21 01:44:39;;;;;;;8.93;6.82;;;;;;;;;;4823935;29;20099;-83
2023/04/21 01:47:07;;;;;;;10.90;7.15;;;;;;;;;;4821000;29;20107;-84
2023/04/21 01:49:34;;;;;;;9.88;7.93;;;;;;;;;;4822884;29;20065;-85
2023/04/21 01:52:02;;;;;;;14.52;8.88;;;;;;;;;;4829630;29;20065;-84
2023/04/21 01:54:29;;;;;;;16.67;10.82;;;;;;;;;;4825437;29;20054;-85
2023/04/21 01:56:57;;;;;;;11.57;7.13;;;;;;;;;;4826682;29;20088;-84
2023/04/21 01:59:24;;;;;;;7.03;5.50;;;;;;;;;;4826681;29;20039;-85
2023/04/21 02:01:52;;;;;;;6.35;5.47;;;;;;;;;;4820715;29;20129;-83
2023/04/21 02:04:19;;;;;;;7.10;4.53;;;;;;;;;;4818350;29;20142;-84
2023/04/21 02:06:47;;;;;;;4.38;3.97;;;;;;;;;;4819449;29;20053;-84
2023/04/21 02:09:14;;;;;;;4.22;3.92;;;;;;;;;;4827086;29;20444;-83
2023/04/21 02:11:42;;;;;;;5.20;4.80;;;;;;;;;;4822316;29;20080;-84
2023/04/21 02:14:10;;;;;;;6.03;5.25;;;;;;;;;;4828395;29;20058;-84
2023/04/21 02:16:39;;;;;;;5.68;5.18;;;;;;;;;;4823458;29;20066;-84
2023/04/21 02:19:07;;;;;;;6.20;5.50;;;;;;;;;;4821121;29;20049;-83
2023/04/21 02:21:34;;;;;;;6.40;5.78;;;;;;;;;;4823843;29;20049;-84
2023/04/21 02:24:02;;;;;;;5.43;4.93;;;;;;;;;;4821718;29;20054;-84
2023/04/21 02:26:29;;;;;;;6.95;6.25;;;;;;;;;;4821169;29;20158;-83
2023/04/21 02:28:59;;;;;;;9.05;6.82;;;;;;;;;;4822170;29;20156;-83
2023/04/21 02:31:27;;;;;;;8.00;6.25;;;;;;;;;;4821898;29;20078;-84
2023/04/21 02:33:55;;;;;;;7.80;6.15;;;;;;;;;;4822079;29;20046;-84
2023/04/21 02:36:22;;;;;;;8.77;6.78;;;;;;;;;;4826358;29;20153;-83
2023/04/21 02:38:50;;;;;;;12.30;6.80;;;;;;;;;;4807568;29;20072;-84
2023/04/21 02:41:17;;;;;;;13.20;7.50;;;;;;;;;;4821362;29;20117;-83
2023/04/21 02:43:44;;;;;;;15.90;9.75;;;;;;;;;;4851412;24;20054;-85
2023/04/21 02:46:12;;;;;;;13.95;9.27;;;;;;;;;;4839720;29;20133;-84
2023/04/21 02:48:40;;;;;;;13.05;8.73;;;;;;;;;;4837893;29;20073;-84
2023/04/21 02:51:11;;;;;;;17.92;10.00;;;;;;;;;;4841485;29;20132;-83
2023/04/21 02:53:39;;;;;;;18.90;10.75;;;;;;;;;;4841537;29;20050;-83
2023/04/21 02:56:10;;;;;;;19.88;10.68;;;;;;;;;;4834890;29;20741;-84
2023/04/21 02:58:37;;;;;;;20.40;10.80;;;;;;;;;;4841349;29;20062;-84
2023/04/21 03:01:05;;;;;;;16.33;10.38;;;;;;;;;;4837701;29;20050;-84
2023/04/21 03:03:34;;;;;;;25.98;12.40;;;;;;;;;;4841331;29;20081;-84
2023/04/21 03:06:04;;;;;;;23.17;12.48;;;;;;;;;;4839261;29;20058;-87
2023/04/21 03:08:31;;;;;;;26.30;16.05;;;;;;;;;;4837972;29;20038;-87
2023/04/21 03:11:00;;;;;;;25.60;14.73;;;;;;;;;;4838141;29;20046;-86
2023/04/21 03:13:27;;;;;;;28.33;13.32;;;;;;;;;;4836214;29;20054;-86
2023/04/21 03:15:56;;;;;;;20.88;12.20;;;;;;;;;;4836967;29;20053;-87
2023/04/21 03:18:24;;;;;;;19.80;12.43;;;;;;;;;;4836728;29;20049;-88
2023/04/21 03:20:59;;;;;;;21.13;12.45;;;;;;;;;;4837773;29;20116;-88
2023/04/21 03:23:27;;;;;;;21.45;11.13;;;;;;;;;;4837923;29;20081;-87
2023/04/21 03:25:54;;;;;;;15.75;9.90;;;;;;;;;;4839609;29;20050;-87
2023/04/21 03:28:21;;;;;;;15.25;9.73;;;;;;;;;;4835966;29;20116;-87
2023/04/21 03:30:51;;;;;;;14.70;9.52;;;;;;;;;;4835810;29;20046;-87
2023/04/21 03:33:18;;;;;;;14.70;9.25;;;;;;;;;;4837983;29;20058;-88
2023/04/21 03:35:48;;;;;;;13.07;8.75;;;;;;;;;;4838945;29;20476;-87
2023/04/21 03:38:18;;;;;;;11.57;7.95;;;;;;;;;;4838310;29;20049;-87
2023/04/21 03:40:46;;;;;;;12.57;8.75;;;;;;;;;;4850337;29;20050;-86
2023/04/21 03:43:13;;;;;;;12.48;8.52;;;;;;;;;;4854051;29;20104;-87
2023/04/21 03:45:43;;;;;;;13.88;7.93;;;;;;;;;;4856511;29;20332;-88
2023/04/21 03:48:11;;;;;;;8.07;7.28;;;;;;;;;;4841617;29;20084;-86
2023/04/21 03:50:38;;;;;;;8.63;6.18;;;;;;;;;;4853494;29;20114;-84
2023/04/21 03:53:05;;;;;;;8.20;6.85;;;;;;;;;;4855220;29;20124;-87
2023/04/21 03:55:33;;;;;;;8.00;6.70;;;;;;;;;;4839827;29;20050;-88
2023/04/21 03:58:02;;;;;;;9.55;7.40;;;;;;;;;;4838679;29;20046;-88
2023/04/21 04:00:30;;;;;;;8.73;6.60;;;;;;;;;;4836921;29;20465;-88
2023/04/21 04:03:00;;;;;;;7.82;6.43;;;;;;;;;;4836459;29;20137;-88
2023/04/21 04:05:27;;;;;;;10.05;6.80;;;;;;;;;;4840877;29;20363;-89
2023/04/21 04:07:55;;;;;;;6.82;6.13;;;;;;;;;;4844486;29;20041;-87
2023/04/21 04:10:22;;;;;;;6.53;5.90;;;;;;;;;;4845491;29;20045;-86
2023/04/21 04:12:49;;;;;;;8.23;6.88;;;;;;;;;;4846319;29;20079;-88
2023/04/21 04:15:17;;;;;;;7.55;6.82;;;;;;;;;;4833754;29;20137;-87
2023/04/21 04:17:51;;;;;;;8.02;6.20;;;;;;;;;;4833223;29;20138;-88
2023/04/21 04:20:19;;;;;;;7.97;6.13;;;;;;;;;;4833579;29;20050;-86
2023/04/21 04:22:49;;;;;;;7.82;5.85;;;;;;;;;;4836307;29;20448;-86
2023/04/21 04:25:17;;;;;;;8.93;5.78;;;;;;;;;;4835922;29;20057;-86
2023/04/21 04:27:45;;;;;;;6.45;5.85;;;;;;;;;;4839491;29;20060;-86
2023/04/21 04:30:13;;;;;;;6.45;5.85;;;;;;;;;;4835378;29;20057;-87
2023/04/21 04:32:43;;;;;;;6.50;5.90;;;;;;;;;;4833952;29;20532;-87
2023/04/21 04:35:12;;;;;;;9.63;6.03;;;;;;;;;;4839544;29;20190;-87
2023/04/21 04:37:41;;;;;;;7.40;6.40;;;;;;;;;;4840107;29;20420;-87
2023/04/21 04:40:12;;;;;;;8.23;5.90;;;;;;;;;;4839231;29;20077;-88
2023/04/21 04:42:39;;;;;;;7.57;6.05;;;;;;;;;;4844302;29;20570;-86
2023/04/21 04:45:07;;;;;;;11.48;6.47;;;;;;;;;;4841628;29;20102;-88
2023/04/21 04:47:35;;;;;;;6.60;5.85;;;;;;;;;;4837383;29;20128;-87
2023/04/21 04:50:02;;;;;;;8.95;7.68;;;;;;;;;;4839648;29;20501;-86
2023/04/21 04:52:30;;;;;;;13.15;7.82;;;;;;;;;;4837034;29;20054;-86
2023/04/21 04:54:57;;;;;;;9.55;7.15;;;;;;;;;;4839379;29;20140;-87
2023/04/21 04:57:25;;;;;;;7.75;6.15;;;;;;;;;;4836021;29;20568;-87
2023/04/21 04:59:56;;;;;;;7.03;6.18;;;;;;;;;;4837644;29;20046;-88
2023/04/21 05:02:23;;;;;;;6.90;6.03;;;;;;;;;;4835068;29;20042;-87
2023/04/21 05:04:54;;;;;;;10.40;5.82;;;;;;;;;;4851644;29;20061;-87
2023/04/21 05:07:22;;;;;;;7.15;6.45;;;;;;;;;;4849189;29;20054;-87
2023/04/21 05:10:04;;;;;;;6.88;6.18;;;;;;;;;;4849701;29;20137;-87
2023/04/21 05:12:34;;;;;;;9.15;6.57;;;;;;;;;;4841952;29;20054;-87
2023/04/21 05:15:03;;;;;;;7.32;6.28;;;;;;;;;;4852614;29;20053;-87
2023/04/21 05:17:36;;;;;;;8.90;6.68;;;;;;;;;;4840107;29;20119;-86
2023/04/21 05:20:10;;;;;;;7.90;7.10;;;;;;;;;;4831262;29;20540;-87
2023/04/21 05:22:38;;;;;;;8.20;7.30;;;;;;;;;;4836541;29;20050;-88
2023/04/21 05:25:05;;;;;;;11.05;8.00;;;;;;;;;;4831665;29;20079;-88
2023/04/21 05:27:33;;;;;;;9.85;8.43;;;;;;;;;;4833436;29;20046;-87
2023/04/21 05:30:04;;;;;;;8.38;7.38;;;;;;;;;;4836172;29;20050;-88
2023/04/21 05:32:31;;;;;;;7.65;6.93;;;;;;;;;;4838045;29;20057;-87
2023/04/21 05:35:11;;;;;;;6.90;6.25;;;;;;;;;;4837441;29;20060;-88
2023/04/21 05:37:38;;;;;;;8.63;7.13;;;;;;;;;;4839985;29;20595;-87
2023/04/21 05:40:06;;;;;;;20.25;7.07;;;;;;;;;;4837868;29;20572;-87
2023/04/21 05:42:41;;;;;;;12.80;7.78;;;;;;;;;;4838055;29;20046;-87
2023/04/21 05:45:09;;;;;;;10.82;6.95;;;;;;;;;;4835345;29;20053;-87
2023/04/21 05:47:43;;;;;;;9.73;7.22;;;;;;;;;;4835188;29;20053;-87
2023/04/21 05:50:11;;;;;;;10.70;6.90;;;;;;;;;;4836322;29;20060;-86
2023/04/21 05:52:48;;;;;;;14.52;6.60;;;;;;;;;;4835339;29;20061;-87
2023/04/21 05:55:21;;;;;;;8.05;7.25;;;;;;;;;;4832604;29;20042;-87
2023/04/21 05:57:49;;;;;;;10.07;6.82;;;;;;;;;;4833877;29;20054;-88
2023/04/21 06:00:17;;;;;;;7.50;6.70;;;;;;;;;;4832972;29;20138;-89
2023/04/21 06:02:51;;;;;;;7.60;6.78;;;;;;;;;;4832030;29;20091;-87
2023/04/21 06:05:18;;;;;;;9.10;7.50;;;;;;;;;;4834074;29;20056;-85
2023/04/21 06:07:46;;;;;;;10.35;7.90;;;;;;;;;;4834398;29;20129;-85
2023/04/21 06:10:14;;;;;;;11.75;7.95;;;;;;;;;;4831436;29;20054;-87
2023/04/21 06:12:45;;;;;;;9.88;8.00;;;;;;;;;;4831505;29;20049;-86
2023/04/21 06:15:12;;;;;;;8.48;7.35;;;;;;;;;;4836541;29;20505;-86
2023/04/21 06:17:40;;;;;;;14.38;8.65;;;;;;;;;;4836352;29;20144;-87
2023/04/21 06:20:08;;;;;;;11.30;8.57;;;;;;;;;;4830089;29;20536;-87
2023/04/21 06:22:38;;;;;;;11.80;9.63;;;;;;;;;;4833404;29;20050;-86
2023/04/21 06:25:06;;;;;;;13.93;9.60;;;;;;;;;;4841054;29;20038;-86
2023/04/21 06:27:33;;;;;;;9.77;8.40;;;;;;;;;;4847073;29;20062;-86
2023/04/21 06:30:01;;;;;;;12.23;8.90;;;;;;;;;;4849444;29;20053;-87
2023/04/21 06:32:30;;;;;;;13.98;10.57;;;;;;;;;;4838171;29;20124;-86
2023/04/21 06:34:57;;;;;;;10.55;9.45;;;;;;;;;;4837555;29;20049;-86
2023/04/21 06:37:27;;;;;;;12.57;9.25;;;;;;;;;;4845750;29;20038;-86
2023/04/21 06:39:54;;;;;;;11.65;10.07;;;;;;;;;;4829238;29;20054;-86
2023/04/21 06:42:22;;;;;;;28.38;22.30;;;;;;;;;;4840113;29;20054;-87
2023/04/21 06:44:49;;;;;;;9.55;8.38;;;;;;;;;;4836342;29;20055;-86
2023/04/21 06:47:17;;;;;;;11.07;8.35;;;;;;;;;;4838225;29;20110;-88
2023/04/21 06:49:50;;;;;;;13.13;8.50;;;;;;;;;;4837166;29;20054;-87
2023/04/21 06:52:18;;;;;;;11.35;8.27;;;;;;;;;;4837117;29;20053;-86
2023/04/21 06:54:47;;;;;;;11.57;8.15;;;;;;;;;;4838067;29;20058;-86
2023/04/21 06:57:16;;;;;;;9.80;8.40;;;;;;;;;;4832217;29;20057;-88
2023/04/21 06:59:43;;;;;;;10.43;8.73;;;;;;;;;;4837225;29;20064;-89
2023/04/21 07:02:11;;;;;;;9.18;8.23;;;;;;;;;;4834585;29;20606;-87
2023/04/21 07:04:41;;;;;;;10.18;8.05;;;;;;;;;;4842624;29;20517;-86
2023/04/21 07:07:09;;;;;;;12.77;7.70;;;;;;;;;;4841129;29;20053;-86
2023/04/21 07:09:47;;;;;;;11.52;7.57;;;;;;;;;;4836321;29;20078;-86
2023/04/21 07:12:17;;;;;;;7.93;7.13;;;;;;;;;;4835331;29;20425;-87
2023/04/21 07:14:44;;;;;;;13.85;7.30;;;;;;;;;;4837829;29;20046;-87
2023/04/21 07:17:12;;;;;;;7.55;6.85;;;;;;;;;;4837628;29;20046;-88
2023/04/21 07:19:40;;;;;;;6.32;5.72;;;;;;;;;;4833439;29;20038;-89
2023/04/21 07:22:07;;;;;;;6.03;5.45;;;;;;;;;;4834188;29;20517;-88
2023/04/21 07:24:36;;;;;;;6.38;5.20;;;;;;;;;;4832574;29;20218;-88
2023/04/21 07:27:03;;;;;;;11.18;6.95;;;;;;;;;;4831847;29;20110;-88
2023/04/21 07:29:31;;;;;;;7.95;6.28;;;;;;;;;;4833486;29;20064;-87
2023/04/21 07:31:59;;;;;;;11.65;7.20;;;;;;;;;;4837827;29;20500;-88
2023/04/21 07:34:29;;;;;;;7.97;6.15;;;;;;;;;;4834421;29;20050;-87
2023/04/21 07:37:04;;;;;;;6.85;6.25;;;;;;;;;;4835672;29;20054;-88
2023/04/21 07:39:32;;;;;;;7.47;5.30;;;;;;;;;;4838298;29;20058;-88
2023/04/21 07:42:01;;;;;;;8.10;5.57;;;;;;;;;;4841334;29;20109;-87
2023/04/21 07:44:29;;;;;;;6.28;4.70;;;;;;;;;;4840498;29;20054;-86
2023/04/21 07:46:58;;;;;;;5.85;4.40;;;;;;;;;;4836932;29;20049;-89
2023/04/21 07:49:26;;;;;;;5.20;4.70;;;;;;;;;;4844321;29;20058;-88
2023/04/21 07:51:57;;;;;;;;;;;;;;;;;;4833499;29;20058;-87
2023/04/21 07:54:25;;;;;;;5.18;4.18;;;;;;;;;;4854077;29;19919;-88
2023/04/21 07:56:56;;;;;;;4.82;3.60;;;;;;;;;;4862394;29;20126;-89
2023/04/21 07:59:24;;;;;;;17.98;16.30;;;;;;;;;;4854272;29;20088;-88
2023/04/21 08:01:57;;;;;;;4.85;3.00;;;;;;;;;;4843672;29;20072;-86
2023/04/21 08:04:25;;;;;;;15.93;7.60;;;;;;;;;;4834588;29;20045;-85
2023/04/21 08:06:55;;;;;;;2.60;2.40;;;;;;;;;;4840639;29;20398;-88
2023/04/21 08:09:23;;;;;;;2.75;2.55;;;;;;;;;;4837294;29;20605;-88
2023/04/21 08:11:54;;;;;;;23.65;17.35;;;;;;;;;;4840000;29;20066;-86
2023/04/21 08:14:21;;;;;;;3.00;2.38;;;;;;;;;;4835525;29;20137;-87
2023/04/21 08:16:55;;;;;;;4.47;2.60;;;;;;;;;;4840008;29;20057;-87
2023/04/21 08:19:26;;;;;;;2.70;2.50;;;;;;;;;;4832268;29;20499;-87
2023/04/21 08:21:57;;;;;;;2.30;2.20;;;;;;;;;;4836121;29;20110;-87
2023/04/21 08:24:28;;;;;;;9.88;7.10;;;;;;;;;;4835325;29;20045;-87
2023/04/21 08:26:58;;;;;;;2.30;2.10;;;;;;;;;;4836721;29;20052;-88
2023/04/21 08:29:25;;;;;;;2.92;2.15;;;;;;;;;;4833947;29;20440;-86
2023/04/21 08:32:10;;;;;;;2.47;2.28;;;;;;;;;;4838134;29;20052;-88
2023/04/21 08:34:39;;;;;;;2.40;2.30;;;;;;;;;;4838947;29;20483;-89
2023/04/21 08:37:12;;;;;;;3.40;2.28;;;;;;;;;;4845619;29;20122;-89
2023/04/21 08:39:42;;;;;;;33.25;14.88;;;;;;;;;;4838833;29;20069;-85
2023/04/21 08:42:38;;;;;;;3.75;2.67;;;;;;;;;;4840837;29;20435;-86
2023/04/21 08:50:30;;;;;;;;;;;;;;;;;;;;;
2023/04/21 08:54:00;;;;;;;2.30;2.10;;;;;;;;;;4868564;24;20114;-80
2023/04/21 08:56:27;;;;;;;4.20;2.22;;;;;;;;;;4851370;29;20057;-80
2023/04/21 08:58:55;;;;;;;4.93;3.53;;;;;;;;;;4849017;29;20053;-79
2023/04/21 09:01:23;;;;;;;59.58;37.03;;;;;;;;;;4854376;29;20046;-81
2023/04/21 09:03:50;;;;;;;115.88;52.90;;;;;;;;;;4851849;29;20126;-81
2023/04/21 09:06:18;;;;;;;190.77;88.70;;;;;;;;;;4851292;29;20050;-80
2023/04/21 09:08:54;;;;;;;5.03;2.17;;;;;;;;;;4846253;29;20059;-80
2023/04/21 09:11:22;;;;;;;8.82;2.45;;;;;;;;;;4854023;29;20053;-83
2023/04/21 09:13:50;;;;;;;4.93;2.58;;;;;;;;;;4849300;29;20053;-82
2023/04/21 09:16:21;;;;;;;18.77;15.60;;;;;;;;;;4848097;29;20046;-79
2023/04/21 09:18:50;;;;;;;389.30;223.25;;;;;;;;;;4847933;29;20129;-79
2023/04/21 09:21:18;;;;;;;3.28;2.78;;;;;;;;;;4859605;29;20045;-80
2023/04/21 09:23:46;;;;;;;11.75;10.48;;;;;;;;;;4853771;29;20046;-81
2023/04/21 09:26:14;;;;;;;2.20;2.00;;;;;;;;;;4851657;29;20610;-81
2023/04/21 09:28:43;;;;;;;3.72;2.00;;;;;;;;;;4846678;29;20596;-81
2023/04/21 09:31:23;;;;;;;2.00;1.80;;;;;;;;;;4851649;29;20588;-82
2023/04/21 09:33:53;;;;;;;5.68;2.20;;;;;;;;;;4848128;29;20045;-81
2023/04/21 09:36:27;;;;;;;2.70;2.30;;;;;;;;;;4851864;29;20057;-83
2023/04/21 09:38:59;;;;;;;6.38;6.00;;;;;;;;;;4854517;29;20081;-81
2023/04/21 09:41:32;;;;;;;2.05;1.95;;;;;;;;;;4855487;29;20041;-81
2023/04/21 09:44:00;;;;;;;221.95;116.53;;;;;;;;;;4856891;29;20065;-83
2023/04/21 09:46:29;;;;;;;2.75;2.47;;;;;;;;;;4855341;29;20065;-83
2023/04/21 09:48:58;;;;;;;1.83;1.73;;;;;;;;;;4854180;29;20050;-80
2023/04/21 09:51:26;;;;;;;3.90;2.00;;;;;;;;;;4854358;29;20060;-80
2023/04/21 09:54:17;;;;;;;2.95;2.75;;;;;;;;;;4846945;29;20042;-81
2023/04/21 09:56:58;;;;;;;17.20;13.40;;;;;;;;;;4844920;29;20125;-81
2023/04/21 09:59:28;;;;;;;6.90;5.30;;;;;;;;;;4853901;29;20053;-83
2023/04/21 10:01:57;;;;;;;2.13;2.00;;;;;;;;;;4851692;29;20437;-80
2023/04/21 10:04:25;;;;;;;1.80;1.70;;;;;;;;;;4850864;29;20044;-79
2023/04/21 10:06:54;;;;;;;1.88;1.63;;;;;;;;;;4855282;29;20068;-80
2023/04/21 10:09:23;;;;;;;2.40;2.20;;;;;;;;;;4853318;29;20106;-81
2023/04/21 10:11:52;;;;;;;1.98;1.88;;;;;;;;;;4853371;29;20931;-81
2023/04/21 10:14:19;;;;;;;76.53;48.20;;;;;;;;;;4852203;29;20072;-81
2023/04/21 10:16:57;;;;;;;24.63;12.70;;;;;;;;;;4847423;29;20046;-82
2023/04/21 10:19:25;;;;;;;2.33;2.13;;;;;;;;;;4852053;29;20112;-80
2023/04/21 10:21:56;;;;;;;1.83;1.38;;;;;;;;;;4854860;29;20507;-80
2023/04/21 10:24:27;;;;;;;2.08;1.98;;;;;;;;;;4849922;29;20325;-80
2023/04/21 10:27:00;;;;;;;1.88;1.77;;;;;;;;;;4842790;29;20057;-82
2023/04/21 10:29:32;;;;;;;2.55;2.05;;;;;;;;;;4843009;29;20057;-79
2023/04/21 10:32:44;;;;;;;3.78;3.58;;;;;;;;;;4852021;29;20045;-80
2023/04/21 10:35:16;;;;;;;1.95;1.77;;;;;;;;;;4848642;29;20046;-82
2023/04/21 10:37:47;;;;;;;4.43;1.80;;;;;;;;;;4847243;29;20053;-84
2023/04/21 10:40:29;;;;;;;1.92;1.73;;;;;;;;;;4847026;29;20053;-79
2023/04/21 10:43:30;;;;;;;10.35;9.27;;;;;;;;;;4845425;29;20102;-80
2023/04/21 10:45:57;;;;;;;1.70;1.60;;;;;;;;;;4849418;29;20056;-78
2023/04/21 10:48:25;;;;;;;1.65;1.60;;;;;;;;;;4852059;29;20126;-79
2023/04/21 10:50:55;;;;;;;7.30;5.00;;;;;;;;;;4849047;29;20053;-80
2023/04/21 10:53:42;;;;;;;18.33;14.45;;;;;;;;;;4835006;29;20061;-81
2023/04/21 10:56:10;;;;;;;17.17;12.30;;;;;;;;;;4855326;29;20122;-80
2023/04/21 10:58:40;;;;;;;2.10;2.00;;;;;;;;;;4861165;29;20049;-80
2023/04/21 11:01:08;;;;;;;2.28;1.90;;;;;;;;;;4858198;29;20110;-81
2023/04/21 11:03:35;;;;;;;1.50;1.40;;;;;;;;;;4864153;29;20101;-81
2023/04/21 11:06:13;;;;;;;2.97;2.78;;;;;;;;;;4850020;29;20152;-81
2023/04/21 11:08:57;;;;;;;2.00;1.85;;;;;;;;;;4848327;29;20053;-79
2023/04/21 11:11:26;;;;;;;2.00;1.88;;;;;;;;;;4849092;29;20140;-81
2023/04/21 11:13:53;;;;;;;1.95;1.85;;;;;;;;;;4850052;29;20053;-80
2023/04/21 11:16:22;;;;;;;1.95;1.77;;;;;;;;;;4845226;29;20230;-80
2023/04/21 11:18:49;;;;;;;2.33;1.95;;;;;;;;;;4843776;29;20057;-81
2023/04/21 11:21:20;;;;;;;1.67;1.58;;;;;;;;;;4840932;29;20057;-81
2023/04/21 11:23:53;;;;;;;292.17;147.82;;;;;;;;;;4842720;29;20109;-82
2023/04/21 11:26:37;;;;;;;19.02;13.63;;;;;;;;;;4848135;29;20070;-80
2023/04/21 11:29:08;;;;;;;7.88;7.13;;;;;;;;;;4846067;29;20050;-79
2023/04/21 11:31:47;;;;;;;257.98;142.57;;;;;;;;;;4846934;29;20078;-81
2023/04/21 11:34:24;;;;;;;1.70;1.60;;;;;;;;;;4853510;24;20049;31
2023/04/21 11:36:55;;;;;;;39.72;23.92;;;;;;;;;;4745290;30;20056;-80
2023/04/21 11:39:52;;;;;;;4.18;1.80;;;;;;;;;;4732697;30;20476;-81
2023/04/21 11:42:25;;;;;;;2.03;1.80;;;;;;;;;;4740906;30;20105;-82
2023/04/21 11:45:03;;;;;;;9.43;8.63;;;;;;;;;;4749677;30;20426;-83
2023/04/21 11:47:44;;;;;;;4.95;1.83;;;;;;;;;;4747414;30;20051;-78
2023/04/21 11:50:47;;;;;;;19.10;11.48;;;;;;;;;;4757895;29;20440;-83
2023/04/21 11:53:22;;;;;;;37.63;28.52;;;;;;;;;;4754249;30;20048;-78
2023/04/21 11:55:55;;;;;;;7.25;6.57;;;;;;;;;;4760968;30;20527;-82
2023/04/21 11:58:23;;;;;;;239.60;116.70;;;;;;;;;;4754777;30;20380;-83
2023/04/21 12:00:50;;;;;;;15.38;9.02;;;;;;;;;;4759786;30;20051;-81
2023/04/21 12:03:22;;;;;;;1.70;1.60;;;;;;;;;;4754769;30;20134;-80
2023/04/21 12:05:56;;;;;;;3.83;3.30;;;;;;;;;;4759729;30;20062;-82
2023/04/21 12:08:31;;;;;;;1.83;1.70;;;;;;;;;;4776072;29;20062;-80
2023/04/21 12:10:58;;;;;;;36.63;22.23;;;;;;;;;;4762696;30;20062;-80
2023/04/21 12:13:28;;;;;;;1.70;1.60;;;;;;;;;;4764011;30;20139;-79
2023/04/21 12:15:55;;;;;;;4.40;4.15;;;;;;;;;;4759435;30;20055;-81
2023/04/21 12:18:27;;;;;;;92.72;48.20;;;;;;;;;;4762971;30;20052;-84
2023/04/21 12:20:54;;;;;;;16.52;10.60;;;;;;;;;;4754496;30;20065;-80
2023/04/21 12:23:21;;;;;;;4.07;3.67;;;;;;;;;;4763451;30;20086;-83
2023/04/21 12:25:50;;;;;;;2.03;1.38;;;;;;;;;;4758867;30;20062;-80
2023/04/21 12:28:17;;;;;;;58.60;34.10;;;;;;;;;;4760402;30;20495;-82
2023/04/21 12:30:44;;;;;;;3.33;1.60;;;;;;;;;;4768301;30;20104;-79
2023/04/21 12:33:12;;;;;;;11.93;10.70;;;;;;;;;;4762169;30;20135;-81
2023/04/21 12:35:40;;;;;;;3.08;2.88;;;;;;;;;;4764046;30;20055;-77
2023/04/21 12:38:07;;;;;;;5.07;4.65;;;;;;;;;;4762543;30;20059;-81
2023/04/21 12:40:34;;;;;;;2.67;1.50;;;;;;;;;;4757097;30;20067;-80
2023/04/21 12:43:02;;;;;;;4.45;4.00;;;;;;;;;;4758019;30;20170;-81
2023/04/21 12:45:31;;;;;;;1.58;1.48;;;;;;;;;;4755185;30;20084;-79
2023/04/21 12:47:59;;;;;;;73.45;52.55;;;;;;;;;;4763356;30;20052;-81
2023/04/21 12:50:27;;;;;;;10.73;9.82;;;;;;;;;;4758079;30;20158;-79
2023/04/21 12:52:54;;;;;;;2.28;2.08;;;;;;;;;;4777357;30;20056;-79
2023/04/21 12:55:22;;;;;;;56.75;34.78;;;;;;;;;;4777444;30;20090;-79
2023/04/21 12:57:51;;;;;;;2.05;1.95;;;;;;;;;;4769095;30;20638;-78
2023/04/21 13:00:19;;;;;;;2.95;2.75;;;;;;;;;;4762432;30;20581;-80
2023/04/21 13:02:46;;;;;;;1.90;1.80;;;;;;;;;;4761868;30;20434;-79
2023/04/21 13:05:14;;;;;;;10.43;2.95;;;;;;;;;;4757889;30;21347;-78
2023/04/21 13:07:41;;;;;;;2.03;1.92;;;;;;;;;;4758544;30;20470;-78
2023/04/21 13:10:09;;;;;;;1.73;1.63;;;;;;;;;;4757260;30;20439;-79
2023/04/21 13:12:37;;;;;;;87.85;49.15;;;;;;;;;;4759365;30;20574;-80
2023/04/21 13:15:05;;;;;;;5.00;4.70;;;;;;;;;;4762764;29;20056;-81
2023/04/21 13:17:33;;;;;;;1.70;1.60;;;;;;;;;;4762848;30;20324;-79
2023/04/21 13:20:00;;;;;;;1.80;1.70;;;;;;;;;;4761649;30;20072;-79
2023/04/21 13:22:28;;;;;;;4.05;1.98;;;;;;;;;;4752248;30;20144;-79
2023/04/21 13:24:55;;;;;;;2.03;1.92;;;;;;;;;;4751396;30;20055;-80
2023/04/21 13:27:32;;;;;;;2.38;1.85;;;;;;;;;;4751858;30;20070;-81
2023/04/21 13:29:59;;;;;;;1.85;1.65;;;;;;;;;;4760982;30;20111;-79
2023/04/21 13:32:26;;;;;;;8.18;7.63;;;;;;;;;;4758130;30;20083;-79
2023/04/21 13:34:54;;;;;;;3.22;1.90;;;;;;;;;;4758744;30;20586;-77
2023/04/21 13:37:21;;;;;;;1.75;1.65;;;;;;;;;;4764343;30;20062;-80
2023/04/21 13:39:49;;;;;;;1.40;1.40;;;;;;;;;;4766390;30;20055;-80
2023/04/21 13:42:17;;;;;;;1.60;1.50;;;;;;;;;;4766069;29;20511;-80
2023/04/21 13:44:47;;;;;;;1.95;1.73;;;;;;;;;;4763218;30;20056;-78
2023/04/21 13:47:17;;;;;;;3.80;2.35;;;;;;;;;;4760840;30;20066;-79
2023/04/21 13:49:46;;;;;;;2.35;1.52;;;;;;;;;;4766438;30;20063;-79
2023/04/21 13:52:18;;;;;;;1.13;1.13;;;;;;;;;;4760141;30;20063;-79
2023/04/21 13:54:46;;;;;;;1.60;1.60;;;;;;;;;;4769544;30;20090;-80
2023/04/21 13:57:14;;;;;;;1.77;1.50;;;;;;;;;;4769092;30;20360;-79
2023/04/21 13:59:41;;;;;;;1.77;1.67;;;;;;;;;;4768308;29;20087;-78
2023/04/21 14:02:09;;;;;;;1.40;1.40;;;;;;;;;;4758339;30;20574;-80
2023/04/21 14:04:37;;;;;;;1.25;1.25;;;;;;;;;;4764552;30;20357;-80
2023/04/21 14:07:06;;;;;;;1.23;1.23;;;;;;;;;;4763781;30;20496;-80
2023/04/21 14:09:34;;;;;;;39.95;20.00;;;;;;;;;;4763866;30;20056;-81
2023/04/21 14:12:02;;;;;;;2.25;1.77;;;;;;;;;;4762890;30;20130;-82
2023/04/21 14:14:30;;;;;;;3.67;3.47;;;;;;;;;;4762549;30;20079;-81
2023/04/21 14:17:06;;;;;;;1.50;1.40;;;;;;;;;;4762576;30;20055;-83
2023/04/21 14:19:34;;;;;;;2.50;2.15;;;;;;;;;;4762845;30;20418;-81
2023/04/21 14:22:05;;;;;;;2.22;2.00;;;;;;;;;;4759467;30;20126;-81
2023/04/21 14:24:33;;;;;;;1.80;1.70;;;;;;;;;;4755580;30;20052;-80
2023/04/21 14:27:01;;;;;;;1.83;1.73;;;;;;;;;;4753072;30;20055;-80
2023/04/21 14:29:28;;;;;;;1.50;1.40;;;;;;;;;;4754302;30;20774;-80
2023/04/21 14:31:57;;;;;;;2.75;2.65;;;;;;;;;;4758587;30;20062;-79
2023/04/21 14:34:25;;;;;;;4.97;4.50;;;;;;;;;;4753374;30;21111;-80
2023/04/21 14:36:53;;;;;;;1.40;1.30;;;;;;;;;;4762240;30;20055;-80
2023/04/21 14:39:21;;;;;;;1.58;1.48;;;;;;;;;;4763782;30;20090;-83
2023/04/21 14:41:48;;;;;;;1.77;1.58;;;;;;;;;;4764299;30;20040;-84
2023/04/21 14:44:17;;;;;;;1.13;1.13;;;;;;;;;;4843207;24;20043;-82
2023/04/21 14:46:45;;;;;;;2.95;1.50;;;;;;;;;;4841203;29;20307;-82
2023/04/21 14:49:32;;;;;;;1.42;1.33;;;;;;;;;;4842316;29;20099;-82
2023/04/21 14:52:00;;;;;;;1.52;1.48;;;;;;;;;;4837116;29;20057;-82
2023/04/21 14:54:28;;;;;;;1.55;1.45;;;;;;;;;;4828762;29;20066;-82
2023/04/21 14:56:56;;;;;;;3.55;3.35;;;;;;;;;;4837881;29;20409;-82
2023/04/21 14:59:45;;;;;;;2.90;2.28;;;;;;;;;;4837843;29;20526;-82